Time;durP1;ratioP1;P1;durP2;ratioP2;P2;SDS_P1;SDS_P2;PMS_P1;PMS_P2;Temp;Humidity;BMP_temperature;BMP_pressure;BME280_temperature;BME280_humidity;BME280_pressure;Samples;Min_cycle;Max_cycle;Signal;HPM_P1;HPM_P2
2021/11/13 00:00:56;;;;;;;16.08;6.70;;;;;;;15.47;70.23;101590.41;5118998;28;20506;-68
2021/11/13 00:03:23;;;;;;;13.50;7.50;;;;;;;15.46;70.40;101595.72;5094177;27;20036;-67
2021/11/13 00:05:51;;;;;;;13.65;7.18;;;;;;;15.42;70.28;101591.25;5101181;27;20078;-67
2021/11/13 00:08:19;;;;;;;16.95;7.28;;;;;;;15.41;70.19;101600.13;5099382;28;20047;-67
2021/11/13 00:10:48;;;;;;;12.43;7.72;;;;;;;15.40;70.29;101596.56;5105902;28;20150;-67
2021/11/13 00:13:16;;;;;;;13.23;6.57;;;;;;;15.37;70.18;101599.19;5108961;28;20047;-67
2021/11/13 00:15:44;;;;;;;14.95;6.40;;;;;;;15.35;70.45;101595.63;5108553;28;20028;-67
2021/11/13 00:18:12;;;;;;;13.43;7.70;;;;;;;15.33;70.85;101591.16;5100262;28;20043;-67
2021/11/13 00:20:40;;;;;;;14.80;7.15;;;;;;;15.32;71.08;101595.59;5088162;28;20045;-68
2021/11/13 00:23:07;;;;;;;13.77;7.03;;;;;;;15.31;71.33;101600.88;5104033;28;20515;-67
2021/11/13 00:25:36;;;;;;;12.15;7.05;;;;;;;15.32;71.47;101610.66;5088039;28;20051;-67
2021/11/13 00:28:06;;;;;;;12.60;6.40;;;;;;;15.30;71.58;101604.41;5121623;28;20368;-67
2021/11/13 00:30:33;;;;;;;20.23;7.75;;;;;;;15.30;71.52;101599.09;5070082;28;20041;-67
2021/11/13 00:33:01;;;;;;;16.85;7.28;;;;;;;15.27;71.46;101607.97;5075097;28;20105;-67
2021/11/13 00:35:29;;;;;;;10.82;6.63;;;;;;;15.27;71.47;101607.06;5086635;27;20115;-67
2021/11/13 00:37:56;;;;;;;15.05;6.10;;;;;;;15.24;71.93;101599.03;5069736;28;20060;-67
2021/11/13 00:40:24;;;;;;;12.73;7.07;;;;;;;15.24;71.89;101602.59;5092154;28;20055;-67
2021/11/13 00:42:51;;;;;;;12.65;7.03;;;;;;;15.24;71.80;101596.38;5076211;28;20135;-67
2021/11/13 00:45:20;;;;;;;12.60;5.97;;;;;;;15.22;71.91;101606.13;5098815;27;20488;-67
2021/11/13 00:47:48;;;;;;;10.68;5.82;;;;;;;15.22;71.92;101603.47;5091188;27;20127;-67
2021/11/13 00:50:16;;;;;;;14.30;7.20;;;;;;;15.22;71.71;101608.78;5104492;28;20123;-67
2021/11/13 00:52:44;;;;;;;15.52;6.28;;;;;;;15.20;71.66;101605.22;5110481;28;20044;-67
2021/11/13 00:55:15;;;;;;;17.40;6.25;;;;;;;15.17;71.84;101606.06;5112749;27;20387;-67
2021/11/13 00:57:43;;;;;;;13.65;6.68;;;;;;;15.13;72.32;101596.28;5093399;28;20470;-67
2021/11/13 01:00:15;;;;;;;11.65;7.40;;;;;;;15.13;72.49;101606.91;5097728;28;20426;-68
2021/11/13 01:02:45;;;;;;;17.50;6.85;;;;;;;15.09;72.59;101608.66;5089162;28;20032;-67
2021/11/13 01:05:15;;;;;;;11.30;6.45;;;;;;;15.10;72.63;101613.09;5070520;28;20094;-67
2021/11/13 01:07:43;;;;;;;13.85;7.25;;;;;;;15.11;72.41;101612.22;5071271;28;20052;-68
2021/11/13 01:10:16;;;;;;;14.82;7.18;;;;;;;15.12;72.55;101611.34;5085274;28;20173;-67
2021/11/13 01:12:44;;;;;;;13.23;7.47;;;;;;;15.11;72.56;101604.25;5085778;28;20043;-67
2021/11/13 01:15:13;;;;;;;14.27;6.95;;;;;;;15.11;72.50;101609.56;5118817;27;20498;-68
2021/11/13 01:17:41;;;;;;;12.20;6.57;;;;;;;15.10;72.69;101607.78;5095723;28;20043;-67
2021/11/13 01:20:14;;;;;;;16.35;8.23;;;;;;;15.11;72.56;101612.22;5102305;28;20135;-68
2021/11/13 01:22:42;;;;;;;16.67;7.97;;;;;;;15.11;72.49;101612.22;5105830;28;20059;-67
2021/11/13 01:25:11;;;;;;;16.00;7.32;;;;;;;15.08;72.23;101604.22;5098701;28;20621;-67
2021/11/13 01:27:39;;;;;;;11.65;6.10;;;;;;;15.03;72.31;101603.25;5121554;27;20048;-67
2021/11/13 01:30:09;;;;;;;12.23;7.13;;;;;;;15.02;72.31;101608.59;5100102;28;20040;-67
2021/11/13 01:32:37;;;;;;;13.18;7.20;;;;;;;14.98;72.54;101602.31;5102480;28;20052;-67
2021/11/13 01:35:05;;;;;;;14.52;7.60;;;;;;;14.98;72.63;101599.66;5093797;28;20509;-67
2021/11/13 01:37:35;;;;;;;13.55;6.75;;;;;;;14.98;72.77;101604.97;5087282;28;20044;-67
2021/11/13 01:40:04;;;;;;;13.73;7.32;;;;;;;14.98;73.10;101604.97;5090213;28;20047;-67
2021/11/13 01:42:34;;;;;;;11.27;6.07;;;;;;;15.00;72.97;101602.34;5089428;28;20036;-67
2021/11/13 01:45:03;;;;;;;12.60;7.00;;;;;;;15.02;72.97;101600.59;5096434;28;20040;-67
2021/11/13 01:47:30;;;;;;;14.45;7.28;;;;;;;15.05;72.98;101601.50;5089412;28;20044;-65
2021/11/13 01:49:58;;;;;;;13.30;7.18;;;;;;;15.06;72.93;101597.09;5089242;28;20040;-65
2021/11/13 01:52:25;;;;;;;15.20;7.05;;;;;;;15.07;73.01;101604.19;5089410;28;20678;-65
2021/11/13 01:54:55;;;;;;;16.70;7.22;;;;;;;15.09;72.82;101598.03;5088696;28;20032;-65
2021/11/13 01:57:23;;;;;;;12.80;6.40;;;;;;;15.09;72.93;101600.69;5090708;28;20373;-65
2021/11/13 01:59:53;;;;;;;13.23;7.13;;;;;;;15.13;72.92;101599.84;5104487;28;20040;-64
2021/11/13 02:02:21;;;;;;;11.73;6.22;;;;;;;15.12;73.03;101603.38;5101078;28;20094;-65
2021/11/13 02:04:48;;;;;;;12.95;6.00;;;;;;;15.13;73.26;101607.81;5089877;28;20043;-65
2021/11/13 02:07:16;;;;;;;12.00;6.28;;;;;;;15.14;73.29;101592.75;5089828;28;20047;-65
2021/11/13 02:09:43;;;;;;;13.35;7.10;;;;;;;15.16;73.03;101602.50;5089880;28;20393;-65
2021/11/13 02:12:12;;;;;;;15.20;6.00;;;;;;;15.20;73.18;101605.22;5090512;28;20039;-65
2021/11/13 02:14:40;;;;;;;15.07;7.28;;;;;;;15.20;73.07;101606.13;5088383;28;20566;-65
2021/11/13 02:17:08;;;;;;;11.65;6.32;;;;;;;15.16;72.89;101605.16;5089040;28;20089;-65
2021/11/13 02:19:36;;;;;;;11.23;6.07;;;;;;;15.14;72.95;101606.94;5089152;28;20039;-65
2021/11/13 02:22:06;;;;;;;10.90;6.18;;;;;;;15.13;72.89;101610.47;5088727;28;20032;-64
2021/11/13 02:24:34;;;;;;;13.90;7.60;;;;;;;15.15;72.89;101606.06;5088299;28;20040;-65
2021/11/13 02:27:01;;;;;;;14.98;6.97;;;;;;;15.17;72.95;101603.41;5088946;28;20056;-65
2021/11/13 02:29:29;;;;;;;16.00;7.55;;;;;;;15.21;72.92;101609.66;5088638;28;20040;-65
2021/11/13 02:31:58;;;;;;;13.82;6.88;;;;;;;15.23;73.04;101607.94;5090306;28;20500;-65
2021/11/13 02:34:25;;;;;;;12.77;7.55;;;;;;;15.27;73.09;101601.75;5087823;28;20047;-65
2021/11/13 02:36:54;;;;;;;11.50;6.13;;;;;;;15.30;73.13;101594.66;5088249;28;20089;-65
2021/11/13 02:39:23;;;;;;;15.15;6.43;;;;;;;15.32;73.20;101598.25;5089468;28;20044;-64
2021/11/13 02:41:51;;;;;;;14.60;6.75;;;;;;;15.35;73.30;101594.75;5089380;28;20514;-65
2021/11/13 02:44:21;;;;;;;13.30;6.82;;;;;;;15.37;73.41;101601.84;5088115;28;20052;-65
2021/11/13 02:46:52;;;;;;;12.55;6.82;;;;;;;15.37;73.55;101603.59;5085045;28;20078;-65
2021/11/13 02:49:21;;;;;;;11.00;6.28;;;;;;;15.38;73.45;101600.97;5089191;28;20052;-65
2021/11/13 02:51:49;;;;;;;14.43;6.53;;;;;;;15.39;73.48;101607.19;5087829;28;20043;-65
2021/11/13 02:54:17;;;;;;;12.45;7.22;;;;;;;15.41;73.49;101603.66;5089174;28;20052;-65
2021/11/13 02:56:47;;;;;;;16.50;7.35;;;;;;;15.45;73.56;101610.78;5088481;28;20101;-66
2021/11/13 02:59:15;;;;;;;16.65;7.43;;;;;;;15.47;73.62;101613.47;5085938;28;20146;-65
2021/11/13 03:01:43;;;;;;;14.55;6.88;;;;;;;15.46;73.54;101615.25;5089037;28;20495;-66
2021/11/13 03:04:12;;;;;;;11.63;6.22;;;;;;;15.44;73.59;101614.31;5088638;28;20500;-66
2021/11/13 03:06:40;;;;;;;11.95;6.78;;;;;;;15.44;73.63;101614.31;5089457;28;20040;-65
2021/11/13 03:09:09;;;;;;;12.75;6.53;;;;;;;15.44;73.70;101616.09;5089509;28;20548;-65
2021/11/13 03:11:37;;;;;;;11.68;6.00;;;;;;;15.44;73.76;101616.09;5089454;28;20085;-65
2021/11/13 03:14:06;;;;;;;11.15;5.95;;;;;;;15.45;73.84;101621.44;5101528;28;20103;-65
2021/11/13 03:16:34;;;;;;;11.25;6.55;;;;;;;15.47;73.95;101613.47;5089304;28;20134;-65
2021/11/13 03:19:02;;;;;;;10.70;6.45;;;;;;;15.52;73.87;101615.31;5088116;28;20083;-65
2021/11/13 03:21:29;;;;;;;12.57;6.38;;;;;;;15.54;73.92;101618.91;5089396;28;20044;-65
2021/11/13 03:23:57;;;;;;;16.33;8.48;;;;;;;15.56;73.77;101618.91;5089165;28;20608;-65
2021/11/13 03:26:28;;;;;;;12.95;6.32;;;;;;;15.60;73.70;101622.50;5088809;28;20461;-65
2021/11/13 03:29:00;;;;;;;12.75;7.07;;;;;;;15.62;73.57;101624.28;5089107;28;20037;-65
2021/11/13 03:31:29;;;;;;;11.95;6.60;;;;;;;15.67;73.48;101613.69;5089396;28;20052;-65
2021/11/13 03:33:57;;;;;;;13.15;6.57;;;;;;;15.69;73.39;101622.56;5088111;28;20090;-65
2021/11/13 03:36:25;;;;;;;11.65;6.32;;;;;;;15.69;73.52;101619.88;5084632;28;20040;-65
2021/11/13 03:38:53;;;;;;;10.68;6.30;;;;;;;15.71;73.50;101619.03;5080192;28;20036;-65
2021/11/13 03:41:21;;;;;;;12.13;6.05;;;;;;;15.76;73.41;101624.38;5088464;28;20074;-65
2021/11/13 03:43:50;;;;;;;13.07;6.47;;;;;;;15.75;73.47;101622.63;5088846;28;20036;-65
2021/11/13 03:46:18;;;;;;;10.55;6.07;;;;;;;15.79;73.27;101625.31;5084570;28;20048;-65
2021/11/13 03:48:47;;;;;;;13.52;6.97;;;;;;;15.78;73.26;101630.63;5087240;28;20036;-65
2021/11/13 03:51:15;;;;;;;13.77;6.43;;;;;;;15.83;73.21;101629.78;5080477;28;20432;-65
2021/11/13 03:53:47;;;;;;;16.75;6.90;;;;;;;15.78;73.42;101631.53;5088983;28;20052;-65
2021/11/13 03:56:15;;;;;;;10.48;5.88;;;;;;;15.78;73.50;101633.28;5087011;28;20041;-65
2021/11/13 03:58:43;;;;;;;12.20;6.50;;;;;;;15.79;73.53;101635.97;5088680;28;20499;-65
2021/11/13 04:01:10;;;;;;;12.27;6.60;;;;;;;15.82;73.35;101635.97;5078876;28;20044;-65
2021/11/13 04:03:38;;;;;;;10.48;6.13;;;;;;;15.79;73.40;101635.97;5088413;28;20093;-66
2021/11/13 04:06:08;;;;;;;13.23;7.00;;;;;;;15.84;73.35;101636.00;5089102;28;20052;-65
2021/11/13 04:08:35;;;;;;;12.15;6.05;;;;;;;15.87;73.27;101636.03;5089023;28;20085;-65
2021/11/13 04:11:04;;;;;;;10.82;6.63;;;;;;;15.85;73.18;101638.69;5103000;28;20040;-65
2021/11/13 04:13:31;;;;;;;11.88;7.10;;;;;;;15.89;73.21;101631.59;5090176;28;20040;-65
2021/11/13 04:15:59;;;;;;;14.13;7.65;;;;;;;15.91;73.26;101638.72;5092140;28;20040;-65
2021/11/13 04:18:33;;;;;;;11.23;5.93;;;;;;;15.93;73.20;101639.66;5108381;28;20051;-65
2021/11/13 04:21:01;;;;;;;12.07;6.35;;;;;;;15.95;73.18;101643.19;5093036;28;20040;-65
2021/11/13 04:23:32;;;;;;;14.90;5.78;;;;;;;15.94;73.26;101645.88;5092202;28;20093;-65
2021/11/13 04:26:00;;;;;;;13.45;5.95;;;;;;;15.93;73.16;101638.75;5080882;28;20043;-65
2021/11/13 04:28:27;;;;;;;11.38;6.10;;;;;;;15.91;72.94;101641.41;5092397;28;20048;-66
2021/11/13 04:30:55;;;;;;;12.88;6.50;;;;;;;15.92;73.01;101643.19;5092061;28;20047;-65
2021/11/13 04:33:23;;;;;;;12.55;5.95;;;;;;;15.93;73.08;101641.41;5092572;28;20070;-65
2021/11/13 04:36:03;;;;;;;9.73;5.88;;;;;;;15.95;73.13;101647.63;5091780;28;20050;-65
2021/11/13 04:38:34;;;;;;;10.90;5.65;;;;;;;15.99;73.12;101646.78;5090886;28;20048;-65
2021/11/13 04:41:05;;;;;;;12.05;6.72;;;;;;;16.02;73.05;101653.88;5092669;28;20040;-65
2021/11/13 04:43:33;;;;;;;11.35;6.05;;;;;;;16.04;73.18;101652.13;5107560;28;20036;-65
2021/11/13 04:46:01;;;;;;;10.90;6.82;;;;;;;16.08;73.03;101667.28;5091572;28;20055;-64
2021/11/13 04:48:28;;;;;;;12.70;5.78;;;;;;;16.09;73.17;101661.94;5091718;28;20067;-65
2021/11/13 04:50:57;;;;;;;16.10;7.22;;;;;;;16.09;73.20;101664.59;5097099;28;20036;-66
2021/11/13 04:53:25;;;;;;;13.50;6.28;;;;;;;16.08;73.20;101664.63;5081004;28;20085;-65
2021/11/13 04:55:55;;;;;;;13.48;6.55;;;;;;;16.08;73.48;101662.81;5090409;28;20044;-65
2021/11/13 04:58:23;;;;;;;11.98;6.60;;;;;;;16.09;73.56;101664.59;5091644;28;20040;-64
2021/11/13 05:00:51;;;;;;;14.15;7.90;;;;;;;16.11;73.56;101665.53;5090686;28;20064;-65
2021/11/13 05:03:19;;;;;;;12.77;7.00;;;;;;;16.14;73.81;101670.00;5089803;28;20426;-65
2021/11/13 05:05:46;;;;;;;11.73;6.82;;;;;;;16.17;73.74;101676.22;5091153;28;20044;-65
2021/11/13 05:08:14;;;;;;;14.48;6.95;;;;;;;16.21;73.77;101679.81;5097687;28;20713;-65
2021/11/13 05:10:41;;;;;;;11.68;6.80;;;;;;;16.23;73.80;101675.38;5084201;28;20059;-65
2021/11/13 05:13:12;;;;;;;14.48;6.47;;;;;;;16.23;73.74;101680.69;5090755;28;20054;-65
2021/11/13 05:15:39;;;;;;;18.20;7.95;;;;;;;16.23;73.85;101683.34;5091239;28;20042;-65
2021/11/13 05:18:07;;;;;;;18.92;7.40;;;;;;;16.26;73.75;101691.38;5090046;28;20075;-65
2021/11/13 05:20:35;;;;;;;13.73;6.57;;;;;;;16.26;73.68;101697.63;5091399;28;20044;-65
2021/11/13 05:23:03;;;;;;;14.82;7.00;;;;;;;16.27;73.79;101704.72;5092041;28;20464;-65
2021/11/13 05:25:31;;;;;;;13.57;7.00;;;;;;;16.30;73.74;101706.50;5088448;28;20055;-65
2021/11/13 05:27:59;;;;;;;14.73;7.10;;;;;;;16.32;73.83;101710.09;5091689;28;20078;-65
2021/11/13 05:30:29;;;;;;;18.13;6.95;;;;;;;16.37;73.89;101704.78;5090854;28;20048;-65
2021/11/13 05:32:56;;;;;;;14.40;7.05;;;;;;;16.39;73.89;101708.34;5090240;28;20117;-65
2021/11/13 05:35:25;;;;;;;13.95;6.25;;;;;;;16.42;73.90;101706.59;5089009;28;20043;-66
2021/11/13 05:37:54;;;;;;;12.25;6.68;;;;;;;16.43;74.02;101719.03;5090599;28;20112;-66
2021/11/13 05:40:23;;;;;;;12.75;6.75;;;;;;;16.43;74.07;101728.81;5070182;28;20044;-66
2021/11/13 05:42:51;;;;;;;15.23;8.35;;;;;;;16.47;74.10;101727.97;5089944;28;20055;-66
2021/11/13 05:45:18;;;;;;;11.32;6.97;;;;;;;16.50;74.07;101735.97;5090101;28;20040;-66
2021/11/13 05:47:48;;;;;;;11.73;6.10;;;;;;;16.52;73.93;101724.44;5090684;28;20546;-65
2021/11/13 05:50:17;;;;;;;13.65;6.07;;;;;;;16.52;73.76;101734.22;5090357;28;20085;-66
2021/11/13 05:52:47;;;;;;;13.30;6.90;;;;;;;16.51;73.88;101738.66;5091302;28;20123;-65
2021/11/13 05:55:16;;;;;;;14.05;6.55;;;;;;;16.53;73.92;101736.00;5090328;28;20745;-66
2021/11/13 05:57:43;;;;;;;13.95;6.68;;;;;;;16.54;73.97;101732.47;5087421;28;20102;-66
2021/11/13 06:00:15;;;;;;;14.35;7.00;;;;;;;16.59;73.90;101733.38;5090048;28;20460;-65
2021/11/13 06:02:44;;;;;;;14.45;7.30;;;;;;;16.60;74.03;101738.75;5098250;28;20708;-66
2021/11/13 06:05:14;;;;;;;14.20;6.97;;;;;;;16.65;73.97;101742.34;5070611;28;20047;-65
2021/11/13 06:07:42;;;;;;;15.98;7.10;;;;;;;16.68;73.95;101745.00;5069155;28;20060;-65
2021/11/13 06:10:11;;;;;;;13.95;7.15;;;;;;;16.71;73.92;101745.03;5077417;27;22073;-66
2021/11/13 06:12:39;;;;;;;10.85;6.72;;;;;;;16.76;73.88;101746.84;5111196;28;20059;-66
2021/11/13 06:15:08;;;;;;;14.65;7.30;;;;;;;16.78;73.80;101747.75;5109457;28;20100;-66
2021/11/13 06:17:36;;;;;;;12.20;6.65;;;;;;;16.82;73.88;101757.53;5094101;28;20569;-66
2021/11/13 06:20:05;;;;;;;13.57;6.95;;;;;;;16.86;73.83;101754.91;5088002;28;20500;-65
2021/11/13 06:22:35;;;;;;;14.65;7.68;;;;;;;16.91;73.63;101762.94;5082545;28;20145;-65
2021/11/13 06:25:08;;;;;;;12.55;6.35;;;;;;;16.92;73.61;101759.41;5075574;28;20068;-65
2021/11/13 06:27:38;;;;;;;13.23;5.95;;;;;;;16.92;73.69;101765.63;5086096;28;20040;-65
2021/11/13 06:30:09;;;;;;;20.35;7.45;;;;;;;16.96;73.84;101762.06;5070401;28;20059;-65
2021/11/13 06:32:37;;;;;;;14.52;6.47;;;;;;;16.97;73.92;101762.97;5093337;27;20511;-65
2021/11/13 06:35:07;;;;;;;14.30;6.93;;;;;;;17.00;73.98;101761.19;5103735;27;20601;-65
2021/11/13 06:37:36;;;;;;;14.18;6.55;;;;;;;17.09;73.90;101763.03;5099487;28;20048;-66
2021/11/13 06:40:04;;;;;;;12.07;6.35;;;;;;;17.14;73.89;101763.94;5108566;27;20116;-65
2021/11/13 06:42:33;;;;;;;16.65;7.05;;;;;;;17.21;73.92;101767.53;5115547;27;20039;-65
2021/11/13 06:45:00;;;;;;;12.90;6.80;;;;;;;17.26;73.90;101757.78;5091787;27;20041;-65
2021/11/13 06:47:28;;;;;;;15.57;7.20;;;;;;;17.30;73.99;101767.56;5107219;28;20055;-65
2021/11/13 06:49:58;;;;;;;11.85;6.82;;;;;;;17.35;74.01;101763.16;5108147;28;25561;-65
2021/11/13 06:52:25;;;;;;;11.18;7.53;;;;;;;17.41;74.07;101765.84;5107119;28;20418;-65
2021/11/13 06:54:54;;;;;;;13.50;8.18;;;;;;;17.49;74.23;101761.41;5090020;28;20442;-65
2021/11/13 06:57:22;;;;;;;12.32;8.25;;;;;;;17.59;74.33;101765.03;5109858;27;20123;-66
2021/11/13 06:59:50;;;;;;;12.20;7.63;;;;;;;17.69;74.50;101761.50;5106393;27;20635;-65
2021/11/13 07:02:17;;;;;;;12.48;6.90;;;;;;;17.80;74.45;101759.75;5113320;27;20040;-65
2021/11/13 07:04:45;;;;;;;14.98;7.43;;;;;;;17.86;74.45;101757.06;5101502;27;20062;-66
2021/11/13 07:07:13;;;;;;;10.85;6.97;;;;;;;17.91;74.53;101766.03;5089707;28;20411;-65
2021/11/13 07:09:42;;;;;;;11.82;6.88;;;;;;;17.97;74.30;101762.47;5087593;28;20503;-66
2021/11/13 07:12:12;;;;;;;14.32;6.80;;;;;;;18.04;74.31;101759.81;5088921;27;20118;-66
2021/11/13 07:14:39;;;;;;;18.50;7.68;;;;;;;18.11;74.26;101758.91;5121863;27;20551;-66
2021/11/13 07:17:07;;;;;;;17.48;7.55;;;;;;;18.19;74.13;101759.78;5089761;28;20565;-65
2021/11/13 07:19:35;;;;;;;12.75;7.65;;;;;;;18.40;74.40;101758.91;5114816;27;20046;-65
2021/11/13 07:22:03;;;;;;;16.33;7.70;;;;;;;18.74;74.64;101756.22;5086893;28;20047;-66
2021/11/13 07:24:31;;;;;;;11.57;6.53;;;;;;;19.10;74.46;101761.47;5087242;28;20043;-66
2021/11/13 07:26:59;;;;;;;12.95;6.25;;;;;;;19.44;74.07;101757.75;5088810;28;20086;-65
2021/11/13 07:29:29;;;;;;;11.50;6.47;;;;;;;19.75;73.15;101758.53;5087791;28;20510;-65
2021/11/13 07:31:56;;;;;;;12.48;6.15;;;;;;;19.97;72.56;101758.38;5088027;28;20483;-66
2021/11/13 07:34:25;;;;;;;8.77;5.13;;;;;;;20.19;71.02;101757.31;5092846;28;20139;-66
2021/11/13 07:36:52;;;;;;;10.43;5.05;;;;;;;20.36;70.02;101766.13;5083977;28;20064;-66
2021/11/13 07:39:20;;;;;;;8.40;4.60;;;;;;;20.48;68.91;101766.03;5072140;28;20044;-66
2021/11/13 07:41:47;;;;;;;13.30;6.20;;;;;;;20.69;67.95;101764.94;5076395;28;20123;-66
2021/11/13 07:44:16;;;;;;;12.40;5.90;;;;;;;20.91;67.11;101765.63;5087923;28;20105;-66
2021/11/13 07:46:46;;;;;;;12.50;5.90;;;;;;;21.08;66.10;101760.94;5086616;28;20373;-66
2021/11/13 07:49:14;;;;;;;10.25;5.65;;;;;;;21.11;64.36;101762.72;5088607;28;20278;-68
2021/11/13 07:51:42;;;;;;;10.02;4.70;;;;;;;21.00;63.90;101761.03;5085658;28;21025;-67
2021/11/13 07:54:10;;;;;;;7.47;5.05;;;;;;;20.95;63.21;101759.28;5076419;28;20380;-68
2021/11/13 07:56:38;;;;;;;9.20;4.93;;;;;;;21.00;63.67;101761.03;5085799;28;20046;-66
2021/11/13 07:59:06;;;;;;;12.73;5.78;;;;;;;21.12;63.92;101765.38;5078939;28;20042;-67
2021/11/13 08:01:34;;;;;;;11.00;5.57;;;;;;;21.33;63.82;101756.22;5085724;28;20040;-66
2021/11/13 08:04:03;;;;;;;10.93;5.63;;;;;;;21.40;63.36;101758.78;5087088;28;20048;-67
2021/11/13 08:06:31;;;;;;;9.85;5.10;;;;;;;21.38;62.50;101757.03;5084017;28;20107;-67
2021/11/13 08:08:59;;;;;;;11.32;5.57;;;;;;;21.34;61.81;101752.59;5087646;28;20048;-66
2021/11/13 08:11:27;;;;;;;13.40;5.50;;;;;;;21.44;61.95;101751.59;5084278;28;20036;-67
2021/11/13 08:13:54;;;;;;;11.25;5.53;;;;;;;21.48;61.29;101746.13;5085416;28;20047;-66
2021/11/13 08:16:22;;;;;;;13.82;5.47;;;;;;;21.48;61.08;101753.31;5085255;28;20032;-67
2021/11/13 08:18:50;;;;;;;9.60;4.97;;;;;;;21.70;60.95;101754.78;5084973;28;20098;-67
2021/11/13 08:21:21;;;;;;;6.25;4.32;;;;;;;21.91;60.54;101744.63;5099605;28;20066;-67
2021/11/13 08:23:49;;;;;;;7.97;4.40;;;;;;;21.95;59.79;101744.56;5086474;28;20051;-67
2021/11/13 08:26:17;;;;;;;9.32;4.57;;;;;;;21.93;59.20;101748.16;5076188;28;20064;-67
2021/11/13 08:28:44;;;;;;;8.50;4.47;;;;;;;21.94;58.99;101736.50;5090815;28;20047;-67
2021/11/13 08:31:12;;;;;;;10.18;4.47;;;;;;;21.82;58.45;101741.16;5087410;28;20044;-66
2021/11/13 08:33:41;;;;;;;8.93;4.22;;;;;;;21.73;58.50;101741.28;5084246;28;20047;-67
2021/11/13 08:36:10;;;;;;;11.20;6.55;;;;;;;21.61;58.20;101743.28;5095050;28;20127;-67
2021/11/13 08:38:39;;;;;;;10.05;5.18;;;;;;;21.49;58.59;101736.28;5089391;28;20041;-66
2021/11/13 08:41:07;;;;;;;14.45;5.55;;;;;;;21.40;58.21;101745.34;5086548;28;20126;-67
2021/11/13 08:43:34;;;;;;;10.98;4.97;;;;;;;21.35;58.21;101746.31;5087879;28;20051;-67
2021/11/13 08:46:02;;;;;;;12.57;5.38;;;;;;;21.27;58.12;101742.81;5072228;28;20561;-67
2021/11/13 08:48:30;;;;;;;9.60;4.60;;;;;;;21.18;57.87;101738.47;5086322;28;20504;-67
2021/11/13 08:50:58;;;;;;;9.80;4.88;;;;;;;21.33;58.18;101732.03;5101744;28;20491;-67
2021/11/13 08:53:26;;;;;;;9.73;4.75;;;;;;;21.58;58.33;101732.59;5087288;28;20040;-67
2021/11/13 08:55:55;;;;;;;9.55;4.55;;;;;;;21.84;57.10;101733.09;5085836;28;20065;-67
2021/11/13 08:58:23;;;;;;;11.00;4.78;;;;;;;22.04;56.69;101738.19;5081397;28;20036;-67
2021/11/13 09:00:55;;;;;;;12.00;5.28;;;;;;;22.21;56.62;101739.69;5077588;28;20044;-67
2021/11/13 09:03:26;;;;;;;9.27;4.93;;;;;;;22.36;56.30;101729.56;5096390;28;20047;-67
2021/11/13 09:05:56;;;;;;;8.63;5.00;;;;;;;22.36;55.32;101738.53;5089669;28;20906;-67
2021/11/13 09:08:25;;;;;;;11.35;5.10;;;;;;;22.33;55.24;101724.22;5090489;28;20044;-67
2021/11/13 09:10:56;;;;;;;19.33;7.63;;;;;;;22.19;55.29;101725.34;5106950;28;20050;-67
2021/11/13 09:13:27;;;;;;;13.13;6.05;;;;;;;22.18;55.45;101715.53;5090073;28;20040;-67
2021/11/13 09:15:55;;;;;;;9.35;4.38;;;;;;;22.33;55.62;101705.41;5089830;28;22689;-67
2021/11/13 09:18:23;;;;;;;16.08;5.00;;;;;;;22.46;55.05;101707.84;5088218;28;20109;-67
2021/11/13 09:20:51;;;;;;;6.50;3.65;;;;;;;22.58;54.38;101706.72;5088164;28;20081;-66
2021/11/13 09:23:20;;;;;;;12.95;7.05;;;;;;;22.76;54.27;101705.53;5089871;28;20040;-67
2021/11/13 09:25:48;;;;;;;13.10;6.63;;;;;;;22.79;54.27;101705.47;5091027;28;20406;-67
2021/11/13 09:28:18;;;;;;;12.98;4.88;;;;;;;22.81;53.98;101690.16;5074350;28;20561;-67
2021/11/13 09:30:46;;;;;;;9.05;4.30;;;;;;;22.75;53.85;101699.25;5089214;28;20040;-67
2021/11/13 09:33:14;;;;;;;9.10;4.78;;;;;;;22.63;53.87;101689.59;5084685;28;20132;-67
2021/11/13 09:35:45;;;;;;;8.90;4.75;;;;;;;22.43;53.98;101689.06;5089558;28;20040;-67
2021/11/13 09:38:14;;;;;;;13.50;4.93;;;;;;;22.13;54.48;101690.50;5098689;28;20071;-67
2021/11/13 09:40:42;;;;;;;11.77;4.75;;;;;;;21.96;54.76;101691.69;5089045;28;20098;-67
2021/11/13 09:43:12;;;;;;;12.35;5.43;;;;;;;21.84;55.06;101677.50;5106584;28;20047;-67
2021/11/13 09:45:41;;;;;;;9.50;4.75;;;;;;;21.95;55.22;101680.00;5089589;28;20044;-67
2021/11/13 09:48:09;;;;;;;7.57;4.63;;;;;;;21.88;55.21;101675.66;5088990;28;20116;-67
2021/11/13 09:50:40;;;;;;;11.52;4.75;;;;;;;21.92;55.61;101673.81;5090173;28;20047;-67
2021/11/13 09:53:08;;;;;;;8.75;4.70;;;;;;;22.06;55.59;101663.72;5085195;28;20048;-67
2021/11/13 09:55:37;;;;;;;10.18;4.60;;;;;;;22.24;55.57;101663.41;5082124;28;20039;-67
2021/11/13 09:58:06;;;;;;;12.20;5.38;;;;;;;22.38;55.39;101657.78;5105704;27;20463;-67
2021/11/13 10:00:38;;;;;;;8.23;3.90;;;;;;;22.56;55.37;101652.94;5109433;27;20577;-67
2021/11/13 10:03:09;;;;;;;10.38;4.30;;;;;;;22.66;54.92;101645.53;5103233;27;20047;-67
2021/11/13 10:05:38;;;;;;;9.35;4.65;;;;;;;22.46;54.23;101650.44;5079811;28;20399;-67
2021/11/13 10:08:06;;;;;;;11.55;4.78;;;;;;;22.18;54.75;101640.22;5087169;28;20044;-67
2021/11/13 10:10:35;;;;;;;8.30;4.72;;;;;;;;;;5089349;28;20675;-67
2021/11/13 10:13:04;;;;;;;8.85;4.75;;;;;;;22.02;55.00;101636.00;5089478;28;20123;-67
2021/11/13 10:15:34;;;;;;;8.35;4.80;;;;;;;21.78;55.73;101647.16;5088198;28;20097;-67
2021/11/13 10:18:09;;;;;;;12.32;4.68;;;;;;;21.65;55.97;101643.78;5089126;28;20454;-67
2021/11/13 10:20:39;;;;;;;9.07;5.90;;;;;;;21.64;56.33;101642.00;5090096;28;20036;-67
2021/11/13 10:23:07;;;;;;;12.50;5.07;;;;;;;21.77;56.57;101646.25;5090362;28;20140;-68
2021/11/13 10:25:35;;;;;;;10.50;5.35;;;;;;;21.82;56.51;101640.81;5089765;28;20060;-67
2021/11/13 10:28:12;;;;;;;9.68;4.68;;;;;;;21.87;56.52;101641.59;5105986;28;20119;-67
2021/11/13 10:30:41;;;;;;;10.18;4.80;;;;;;;21.94;56.28;101640.59;5087318;28;20519;-68
2021/11/13 10:33:11;;;;;;;10.98;4.68;;;;;;;22.05;56.40;101632.38;5089407;28;20048;-68
2021/11/13 10:35:50;;;;;;;11.00;5.10;;;;;;;22.22;56.14;101632.97;5089210;28;20040;-69
2021/11/13 10:38:20;;;;;;;8.30;3.95;;;;;;;22.32;55.64;101633.69;5089781;27;20047;-67
2021/11/13 10:40:54;;;;;;;9.27;5.60;;;;;;;22.34;55.51;101626.44;5100400;28;20115;-67
2021/11/13 10:43:31;;;;;;;9.02;4.65;;;;;;;22.24;55.69;101623.97;5090561;28;20044;-67
2021/11/13 10:46:01;;;;;;;11.90;5.40;;;;;;;22.12;55.67;101623.28;5088826;28;20181;-67
2021/11/13 10:48:31;;;;;;;8.35;5.00;;;;;;;22.10;56.10;101617.94;5089836;28;20047;-67
2021/11/13 10:51:10;;;;;;;14.85;8.48;;;;;;;22.22;56.13;101619.50;5084851;28;20044;-68
2021/11/13 10:53:40;;;;;;;16.08;6.95;;;;;;;22.22;56.07;101619.50;5078655;28;20100;-67
2021/11/13 10:56:12;;;;;;;11.15;5.72;;;;;;;22.19;55.90;101619.56;5086257;28;20104;-67
2021/11/13 10:58:43;;;;;;;11.00;4.78;;;;;;;22.18;55.97;101616.00;5108563;28;20413;-68
2021/11/13 11:01:25;;;;;;;12.70;5.35;;;;;;;22.18;56.03;101610.63;5089393;28;20040;-67
2021/11/13 11:03:59;;;;;;;12.45;4.97;;;;;;;22.18;55.92;101613.31;5104380;28;20391;-67
2021/11/13 11:06:30;;;;;;;9.02;4.53;;;;;;;21.97;55.75;101608.31;5089125;28;20085;-67
2021/11/13 11:08:58;;;;;;;10.02;4.82;;;;;;;21.76;55.99;101601.47;5089262;28;20079;-67
2021/11/13 11:11:31;;;;;;;10.95;5.63;;;;;;;21.71;56.54;101594.41;5088437;28;20076;-67
2021/11/13 11:14:00;;;;;;;8.75;4.90;;;;;;;21.71;57.03;101594.41;5085276;28;20230;-67
2021/11/13 11:16:31;;;;;;;12.73;4.70;;;;;;;21.67;57.01;101589.97;5085714;28;20669;-67
2021/11/13 11:19:04;;;;;;;10.57;4.93;;;;;;;21.54;57.20;101585.72;5089909;28;20123;-67
2021/11/13 11:21:48;;;;;;;12.50;5.45;;;;;;;21.58;57.51;101593.72;5087585;28;20044;-67
2021/11/13 11:24:21;;;;;;;11.02;5.03;;;;;;;21.65;57.57;101594.50;5087768;28;20044;-67
2021/11/13 11:26:55;;;;;;;9.10;5.05;;;;;;;21.61;57.51;101592.75;5088637;28;20044;-67